createdAt,value
2022-10-11T00:00:59.527Z,102094.23
2022-10-11T00:03:35.450Z,102092.23
2022-10-11T00:06:06.231Z,102092.52
2022-10-11T00:08:35.201Z,102089.02
2022-10-11T00:11:06.034Z,102086.50
2022-10-11T00:13:34.581Z,102083.27
2022-10-11T00:16:07.914Z,102079.59
2022-10-11T00:18:36.683Z,102076.18
2022-10-11T00:21:08.706Z,102075.21
2022-10-11T00:23:36.934Z,102072.48
2022-10-11T00:26:07.643Z,102071.77
2022-10-11T00:28:36.986Z,102068.86
2022-10-11T00:31:13.915Z,102071.38
2022-10-11T00:33:42.133Z,102066.84
2022-10-11T00:36:13.916Z,102067.05
2022-10-11T00:38:42.127Z,102069.56
2022-10-11T00:41:10.849Z,102067.95
2022-10-11T00:43:39.629Z,102064.29
2022-10-11T00:46:13.806Z,102058.89
2022-10-11T00:48:51.383Z,102059.63
2022-10-11T00:51:40.817Z,102058.61
2022-10-11T00:54:13.237Z,102053.87
2022-10-11T00:56:42.598Z,102054.35
2022-10-11T00:59:18.136Z,102054.23
2022-10-11T01:01:46.319Z,102053.92
2022-10-11T01:05:17.928Z,102049.86
2022-10-11T01:07:43.533Z,102049.99
2022-10-11T01:10:11.956Z,102055.15
2022-10-11T01:13:02.103Z,102055.47
2022-10-11T01:15:43.066Z,102048.29
2022-10-11T01:18:20.749Z,102037.92
2022-10-11T01:20:59.259Z,102032.75
2022-10-11T01:23:54.216Z,102030.52
2022-10-11T01:26:31.953Z,102029.39
2022-10-11T01:29:18.077Z,102025.98
2022-10-11T01:32:09.533Z,102023.43
2022-10-11T01:34:47.451Z,102027.56
2022-10-11T01:37:25.172Z,102022.59
2022-10-11T01:40:10.115Z,102018.91
2022-10-11T01:42:40.591Z,102019.47
2022-10-11T01:45:14.620Z,102021.20
2022-10-11T01:47:42.901Z,102019.70
2022-10-11T01:50:32.813Z,102021.43
2022-10-11T01:53:11.074Z,102016.73
2022-10-11T01:55:51.990Z,102012.95
2022-10-11T01:58:33.470Z,102011.50
2022-10-11T02:01:07.525Z,102012.14
2022-10-11T02:03:49.113Z,102014.20
2022-10-11T02:06:51.515Z,102011.89
2022-10-11T02:09:58.874Z,102014.39
2022-10-11T02:12:43.510Z,102016.83
2022-10-11T02:15:13.977Z,102026.25
2022-10-11T02:17:47.121Z,102030.73
2022-10-11T02:20:20.250Z,102026.80
2022-10-11T02:22:51.991Z,102028.10
2022-10-11T02:25:24.571Z,102029.19
2022-10-11T02:27:56.720Z,102025.44
2022-10-11T02:30:24.930Z,102026.09
2022-10-11T02:32:54.868Z,102020.36
2022-10-11T02:35:25.391Z,102022.63
2022-10-11T02:37:58.873Z,102019.40
2022-10-11T02:40:31.471Z,102011.52
2022-10-11T02:43:05.119Z,102012.80
2022-10-11T02:45:39.576Z,102018.27
2022-10-11T02:48:09.213Z,102016.30
2022-10-11T02:50:39.362Z,102012.47
2022-10-11T02:53:07.712Z,102009.89
2022-10-11T02:55:36.605Z,102007.80
2022-10-11T02:58:04.702Z,102003.72
2022-10-11T03:00:32.852Z,102000.55
2022-10-11T03:03:01.109Z,101996.98
2022-10-11T03:05:29.424Z,101998.71
2022-10-11T03:07:57.637Z,101996.69
2022-10-11T03:10:25.907Z,101995.14
2022-10-11T03:12:53.973Z,101990.14
2022-10-11T03:15:22.460Z,101991.52
2022-10-11T03:17:50.547Z,101993.57
2022-10-11T03:20:19.043Z,101992.77
2022-10-11T03:22:47.130Z,101992.88
2022-10-11T03:25:15.398Z,101993.35
2022-10-11T03:27:43.599Z,101992.11
2022-10-11T03:30:17.327Z,101989.34
2022-10-11T03:32:46.390Z,101992.26
2022-10-11T03:35:14.804Z,101990.10
2022-10-11T03:37:42.949Z,101991.44
2022-10-11T03:40:11.927Z,101987.60
2022-10-11T03:42:40.144Z,101989.05
2022-10-11T03:45:09.918Z,101990.64
2022-10-11T03:47:39.465Z,101991.48
2022-10-11T03:50:08.566Z,101992.56
2022-10-11T03:52:36.943Z,101991.94
2022-10-11T03:55:06.694Z,101993.30
2022-10-11T03:57:34.972Z,101994.02
2022-10-11T04:00:03.465Z,101990.70
2022-10-11T04:02:34.653Z,101986.70
2022-10-11T04:05:06.756Z,101984.91
2022-10-11T04:07:35.014Z,101987.78
2022-10-11T04:10:03.255Z,101989.90
2022-10-11T04:12:31.479Z,101985.70
2022-10-11T04:14:59.685Z,101986.40
2022-10-11T04:17:27.820Z,101987.61
2022-10-11T04:19:55.955Z,101989.23
2022-10-11T04:22:24.200Z,101988.12
2022-10-11T04:24:52.419Z,101989.63
2022-10-11T04:27:20.571Z,101990.36
2022-10-11T04:29:48.776Z,101989.56
2022-10-11T04:32:16.956Z,101990.02
2022-10-11T04:34:45.389Z,101989.48
2022-10-11T04:37:13.735Z,101988.39
2022-10-11T04:39:42.128Z,101987.96
2022-10-11T04:42:10.636Z,101985.42
2022-10-11T04:44:38.918Z,101984.30
2022-10-11T04:47:07.069Z,101981.53
2022-10-11T04:49:35.319Z,101983.92
2022-10-11T04:52:03.531Z,101982.64
2022-10-11T04:54:32.160Z,101985.27
2022-10-11T04:57:00.448Z,101981.58
2022-10-11T04:59:28.598Z,101981.96
2022-10-11T05:01:56.911Z,101979.94
2022-10-11T05:04:25.189Z,101976.83
2022-10-11T05:06:53.346Z,101977.83
2022-10-11T05:09:22.090Z,101981.64
2022-10-11T05:11:50.290Z,101982.65
2022-10-11T05:14:18.450Z,101987.10
2022-10-11T05:16:46.664Z,101987.60
2022-10-11T05:19:14.968Z,101987.38
2022-10-11T05:21:43.214Z,101987.73
2022-10-11T05:24:11.294Z,101989.44
2022-10-11T05:26:39.670Z,101995.30
2022-10-11T05:29:07.956Z,101996.23
2022-10-11T05:31:35.989Z,101999.04
2022-10-11T05:34:04.261Z,101997.97
2022-10-11T05:36:32.569Z,101997.34
2022-10-11T05:39:00.803Z,101999.23
2022-10-11T05:41:29.681Z,102002.05
2022-10-11T05:43:57.901Z,102007.25
2022-10-11T05:46:26.259Z,102003.55
2022-10-11T05:48:54.619Z,102006.60
2022-10-11T05:51:22.888Z,102011.43
2022-10-11T05:53:51.247Z,102013.69
2022-10-11T05:56:21.930Z,102008.41
2022-10-11T05:58:51.134Z,102010.91
2022-10-11T06:01:25.507Z,102010.38
2022-10-11T06:03:54.113Z,102010.42
2022-10-11T06:06:22.371Z,102011.58
2022-10-11T06:08:50.699Z,102014.02
2022-10-11T06:11:25.706Z,102010.80
2022-10-11T06:13:55.836Z,102013.51
2022-10-11T06:16:24.961Z,102014.95
2022-10-11T06:18:57.101Z,102017.75
2022-10-11T06:21:25.541Z,102018.80
2022-10-11T06:23:59.931Z,102017.68
2022-10-11T06:26:30.043Z,102015.63
2022-10-11T06:28:58.947Z,102018.83
2022-10-11T06:31:27.689Z,102021.58
2022-10-11T06:33:55.952Z,102024.12
2022-10-11T06:36:24.258Z,102027.14
2022-10-11T06:38:53.689Z,102030.28
2022-10-11T06:41:27.170Z,102028.48
2022-10-11T06:43:56.553Z,102026.91
2022-10-11T06:46:27.109Z,102027.80
2022-10-11T06:48:56.764Z,102028.39
2022-10-11T06:51:25.716Z,102029.36
2022-10-11T06:53:56.588Z,102031.40
2022-10-11T06:56:30.092Z,102028.11
2022-10-11T06:58:59.880Z,102029.14
2022-10-11T07:01:28.554Z,102025.34
2022-10-11T07:03:58.436Z,102026.36
2022-10-11T07:06:28.475Z,102026.03
2022-10-11T07:08:56.861Z,102024.64
2022-10-11T07:11:27.690Z,102022.69
2022-10-11T07:13:58.390Z,102022.23
2022-10-11T07:16:27.000Z,102019.15
2022-10-11T07:19:00.538Z,102017.39
2022-10-11T07:21:30.581Z,102013.09
2022-10-11T07:23:59.558Z,102011.77
2022-10-11T07:26:31.343Z,102008.96
2022-10-11T07:29:02.414Z,102006.79
2022-10-11T07:31:30.809Z,102006.89
2022-10-11T07:33:59.204Z,102010.38
2022-10-11T07:36:29.639Z,102008.46
2022-10-11T07:38:58.202Z,102007.54
2022-10-11T07:41:26.476Z,102006.02
2022-10-11T07:43:55.339Z,102010.81
2022-10-11T07:46:23.637Z,102007.06
2022-10-11T07:48:51.921Z,102003.89
2022-10-11T07:51:21.968Z,102004.45
2022-10-11T07:53:52.128Z,102009.23
2022-10-11T07:56:23.550Z,102011.33
2022-10-11T07:58:57.435Z,102014.02
2022-10-11T08:01:26.610Z,102012.85
2022-10-11T08:03:54.836Z,102011.08
2022-10-11T08:06:26.290Z,102009.42
2022-10-11T08:08:54.473Z,102011.84
2022-10-11T08:11:24.980Z,102012.77
2022-10-11T08:13:53.404Z,102006.89
2022-10-11T08:16:22.363Z,102006.04
2022-10-11T08:18:50.851Z,102002.38
2022-10-11T08:21:19.384Z,102003.33
2022-10-11T08:23:47.604Z,101999.77
2022-10-11T08:26:16.447Z,101999.63
2022-10-11T08:28:44.812Z,102002.60
2022-10-11T08:31:14.420Z,101999.19
2022-10-11T08:33:42.729Z,101995.24
2022-10-11T08:36:11.756Z,101995.73
2022-10-11T08:38:41.461Z,102002.55
2022-10-11T08:41:51.431Z,101996.92
2022-10-11T08:44:58.320Z,101994.46
2022-10-11T08:47:44.758Z,101991.71
2022-10-11T08:50:19.987Z,101991.27
2022-10-11T08:53:00.227Z,101991.41
2022-10-11T08:55:44.253Z,101986.15
2022-10-11T08:58:15.977Z,101984.98
2022-10-11T09:00:45.163Z,101987.95
2022-10-11T09:03:35.380Z,101988.80
2022-10-11T09:06:25.694Z,101979.85
2022-10-11T09:09:05.703Z,101980.20
2022-10-11T09:11:41.112Z,101977.19
2022-10-11T09:14:40.566Z,101976.56
2022-10-11T09:17:30.447Z,101969.78
2022-10-11T09:20:26.580Z,101971.93
2022-10-11T09:23:21.970Z,101969.75
2022-10-11T09:25:55.358Z,101965.92
2022-10-11T09:28:41.416Z,101968.54
2022-10-11T09:31:10.950Z,101968.17
2022-10-11T09:33:46.742Z,101964.25
2022-10-11T09:36:40.471Z,101962.92
2022-10-11T09:39:37.649Z,101959.36
2022-10-11T09:42:07.962Z,101957.56
2022-10-11T09:44:57.675Z,101955.25
2022-10-11T09:47:31.442Z,101955.42
2022-10-11T09:50:15.115Z,101954.77
2022-10-11T09:52:51.869Z,101949.49
2022-10-11T09:55:39.182Z,101947.70
2022-10-11T09:58:30.081Z,101942.11
2022-10-11T10:01:07.888Z,101938.64
2022-10-11T10:03:38.796Z,101935.67
2022-10-11T10:06:20.056Z,101930.75
2022-10-11T10:08:48.362Z,101927.05
2022-10-11T10:11:17.963Z,101924.95
2022-10-11T10:13:53.327Z,101920.16
2022-10-11T10:16:27.443Z,101917.20
2022-10-11T10:19:07.134Z,101918.70
2022-10-11T10:21:37.951Z,101916.77
2022-10-11T10:24:10.975Z,101915.91
2022-10-11T10:26:40.226Z,101906.84
2022-10-11T10:29:11.449Z,101908.13
2022-10-11T10:32:14.311Z,101906.00
2022-10-11T10:34:52.733Z,101904.31
2022-10-11T10:37:31.886Z,101899.36
2022-10-11T10:40:07.941Z,101898.98
2022-10-11T10:42:36.340Z,101897.66
2022-10-11T10:45:09.789Z,101894.70
2022-10-11T10:48:02.483Z,101890.48
2022-10-11T10:50:46.004Z,101891.12
2022-10-11T10:53:26.658Z,101883.84
2022-10-11T10:56:27.135Z,101885.64
2022-10-11T10:59:03.992Z,101881.02
2022-10-11T11:01:33.896Z,101879.73
2022-10-11T11:04:10.882Z,101877.60
2022-10-11T11:06:50.385Z,101877.80
2022-10-11T11:09:40.044Z,101879.59
2022-10-11T11:12:23.956Z,101872.65
2022-10-11T11:15:02.175Z,101867.80
2022-10-11T11:17:42.412Z,101870.54
2022-10-11T11:20:44.892Z,101870.02
2022-10-11T11:23:34.888Z,101867.88
2022-10-11T11:26:18.220Z,101860.48
2022-10-11T11:28:55.332Z,101859.44
2022-10-11T11:32:14.257Z,101852.10
2022-10-11T11:34:48.051Z,101845.36
2022-10-11T11:37:23.888Z,101843.16
2022-10-11T11:40:00.503Z,101840.91
2022-10-11T11:42:40.179Z,101839.23
2022-10-11T11:45:29.766Z,101832.16
2022-10-11T11:48:11.110Z,101829.95
2022-10-11T11:50:43.991Z,101831.55
2022-10-11T11:53:18.024Z,101823.73
2022-10-11T11:56:10.083Z,101821.92
2022-10-11T11:58:38.340Z,101818.81
2022-10-11T12:01:16.482Z,101816.92
2022-10-11T12:04:02.300Z,101815.17
2022-10-11T12:06:32.723Z,101809.81
2022-10-11T12:09:08.577Z,101805.77
2022-10-11T12:11:46.498Z,101808.27
2022-10-11T12:14:22.451Z,101807.80
2022-10-11T12:17:23.695Z,101810.45
2022-10-11T12:20:12.940Z,101808.19
2022-10-11T12:22:52.287Z,101810.63
2022-10-11T12:25:23.364Z,101805.61
2022-10-11T12:27:53.819Z,101806.55
2022-10-11T12:30:55.711Z,101804.67
2022-10-11T12:33:26.482Z,101804.33
2022-10-11T12:35:54.715Z,101803.40
2022-10-11T12:38:27.012Z,101804.45
2022-10-11T12:41:01.499Z,101798.47
2022-10-11T12:43:33.275Z,101794.20
2022-10-11T12:46:31.323Z,101791.43
2022-10-11T12:49:05.546Z,101791.95
2022-10-11T12:51:44.658Z,101789.34
2022-10-11T12:54:27.342Z,101791.16
2022-10-11T12:57:31.894Z,101789.17
2022-10-11T13:00:29.327Z,101789.31
2022-10-11T13:03:29.753Z,101790.63
2022-10-11T13:06:02.077Z,101790.35
2022-10-11T13:08:36.725Z,101783.88
2022-10-11T13:11:06.985Z,101782.27
2022-10-11T13:13:54.021Z,101781.20
2022-10-11T13:16:45.183Z,101784.46
2022-10-11T13:19:14.274Z,101787.48
2022-10-11T13:21:43.767Z,101788.78
2022-10-11T13:24:18.184Z,101784.17
2022-10-11T13:26:48.583Z,101786.89
2022-10-11T13:29:19.817Z,101788.23
2022-10-11T13:31:48.699Z,101789.02
2022-10-11T13:34:22.393Z,101782.48
2022-10-11T13:36:56.701Z,101777.84
2022-10-11T13:39:35.695Z,101774.90
2022-10-11T13:42:13.692Z,101768.59
2022-10-11T13:44:43.028Z,101767.38
2022-10-11T13:47:19.100Z,101767.31
2022-10-11T13:49:53.700Z,101768.41
2022-10-11T13:52:23.696Z,101766.94
2022-10-11T13:55:10.154Z,101768.12
2022-10-11T13:57:41.482Z,101767.75
2022-10-11T14:00:20.014Z,101768.85
2022-10-11T14:02:51.363Z,101766.90
2022-10-11T14:05:25.922Z,101768.27
2022-10-11T14:07:54.211Z,101765.80
2022-10-11T14:10:22.922Z,101767.21
2022-10-11T14:13:21.247Z,101770.25
2022-10-11T14:15:59.642Z,101770.12
2022-10-11T14:18:48.938Z,101765.98
2022-10-11T14:21:20.463Z,101766.23
2022-10-11T14:23:54.136Z,101765.88
2022-10-11T14:26:23.550Z,101761.54
2022-10-11T14:28:56.926Z,101762.59
2022-10-11T14:31:25.519Z,101766.66
2022-10-11T14:33:55.158Z,101763.17
2022-10-11T14:36:24.407Z,101761.34
2022-10-11T14:38:53.390Z,101761.93
2022-10-11T14:41:21.702Z,101763.11
2022-10-11T14:43:50.186Z,101760.64
2022-10-11T14:46:26.063Z,101760.18
2022-10-11T14:48:56.556Z,101761.09
2022-10-11T14:51:30.265Z,101761.59
2022-10-11T14:53:59.157Z,101764.02
2022-10-11T14:56:27.442Z,101766.41
2022-10-11T14:58:55.802Z,101767.14
2022-10-11T15:01:24.121Z,101770.81
2022-10-11T15:03:52.424Z,101770.26
2022-10-11T15:06:23.080Z,101771.26
2022-10-11T15:08:51.408Z,101774.42
2022-10-11T15:11:20.769Z,101775.75
2022-10-11T15:13:49.559Z,101776.48
2022-10-11T15:16:21.000Z,101779.88
2022-10-11T15:18:52.986Z,101783.11
2022-10-11T15:21:24.591Z,101786.44
2022-10-11T15:23:53.824Z,101792.00
2022-10-11T15:26:25.631Z,101790.08
2022-10-11T15:28:55.182Z,101794.86
2022-10-11T15:31:23.871Z,101794.30
2022-10-11T15:33:52.185Z,101799.33
2022-10-11T15:36:22.209Z,101798.28
2022-10-11T15:38:50.342Z,101798.45
2022-10-11T15:41:20.218Z,101799.70
2022-10-11T15:43:49.157Z,101800.45
2022-10-11T15:46:19.906Z,101800.21
2022-10-11T15:48:49.369Z,101803.09
2022-10-11T15:51:17.806Z,101804.95
2022-10-11T15:53:46.785Z,101803.84
2022-10-11T15:56:18.852Z,101804.58
2022-10-11T15:58:47.297Z,101805.45
2022-10-11T16:01:18.916Z,101806.84
2022-10-11T16:03:49.450Z,101808.23
2022-10-11T16:06:19.064Z,101813.89
2022-10-11T16:08:48.138Z,101813.40
2022-10-11T16:11:16.513Z,101812.02
2022-10-11T16:13:45.440Z,101812.05
2022-10-11T16:16:13.904Z,101812.66
2022-10-11T16:18:42.117Z,101814.24
2022-10-11T16:21:12.041Z,101813.05
2022-10-11T16:23:40.210Z,101819.02
2022-10-11T16:26:12.073Z,101820.06
2022-10-11T16:28:40.445Z,101819.63
2022-10-11T16:31:11.341Z,101822.38
2022-10-11T16:33:46.216Z,101821.25
2022-10-11T16:36:32.177Z,101822.20
2022-10-11T16:39:02.042Z,101824.58
2022-10-11T16:41:30.275Z,101827.95
2022-10-11T16:43:58.533Z,101825.27
2022-10-11T16:46:26.909Z,101826.45
2022-10-11T16:48:56.311Z,101823.59
2022-10-11T16:51:25.020Z,101826.11
2022-10-11T16:53:53.646Z,101824.25
2022-10-11T16:56:24.292Z,101825.21
2022-10-11T16:58:53.541Z,101827.16
2022-10-11T17:01:22.211Z,101825.45
2022-10-11T17:03:51.207Z,101826.80
2022-10-11T17:06:20.284Z,101829.65
2022-10-11T17:08:48.505Z,101830.49
2022-10-11T17:11:17.857Z,101829.02
2022-10-11T17:13:46.248Z,101825.38
2022-10-11T17:16:15.157Z,101824.40
2022-10-11T17:18:43.992Z,101825.76
2022-10-11T17:21:15.161Z,101827.67
2022-10-11T17:23:43.869Z,101827.76
2022-10-11T17:26:19.138Z,101826.81
2022-10-11T17:28:48.073Z,101832.64
2022-10-11T17:31:16.972Z,101832.55
2022-10-11T17:33:45.242Z,101834.33
2022-10-11T17:36:20.119Z,101832.48
2022-10-11T17:38:48.916Z,101829.63
2022-10-11T17:41:17.628Z,101827.63
2022-10-11T17:43:46.007Z,101828.49
2022-10-11T17:46:15.599Z,101830.95
2022-10-11T17:48:44.952Z,101832.80
2022-10-11T17:51:16.595Z,101830.11
2022-10-11T17:53:45.382Z,101831.52
2022-10-11T17:56:16.491Z,101833.64
2022-10-11T17:58:45.417Z,101833.49
2022-10-11T18:01:16.482Z,101835.80
2022-10-11T18:03:45.584Z,101833.02
2022-10-11T18:06:14.025Z,101835.77
2022-10-11T18:08:42.679Z,101835.08
2022-10-11T18:11:14.469Z,101835.44
2022-10-11T18:13:46.419Z,101835.86
2022-10-11T18:16:16.479Z,101838.98
2022-10-11T18:18:45.075Z,101839.15
2022-10-11T18:21:14.619Z,101844.87
2022-10-11T18:23:43.148Z,101842.45
2022-10-11T18:26:11.895Z,101841.48
2022-10-11T18:28:41.058Z,101838.30
2022-10-11T18:31:13.493Z,101840.73
2022-10-11T18:33:43.496Z,101840.23
2022-10-11T18:36:13.959Z,101840.99
2022-10-11T18:38:46.692Z,101840.67
2022-10-11T18:41:20.270Z,101844.46
2022-10-11T18:43:50.300Z,101842.92
2022-10-11T18:46:19.854Z,101844.01
2022-10-11T18:48:50.405Z,101843.80
2022-10-11T18:51:29.857Z,101845.18
2022-10-11T18:54:01.208Z,101848.96
2022-10-11T18:56:30.585Z,101850.71
2022-10-11T18:58:59.853Z,101853.09
2022-10-11T19:01:30.993Z,101855.88
2022-10-11T19:04:00.816Z,101853.48
2022-10-11T19:06:32.623Z,101854.98
2022-10-11T19:09:04.166Z,101856.66
2022-10-11T19:11:33.002Z,101855.19
2022-10-11T19:14:02.790Z,101854.48
2022-10-11T19:16:31.266Z,101851.58
2022-10-11T19:18:59.689Z,101850.27
2022-10-11T19:21:27.952Z,101852.85
2022-10-11T19:23:56.890Z,101851.46
2022-10-11T19:26:30.327Z,101851.58
2022-10-11T19:29:00.793Z,101853.60
2022-10-11T19:31:29.474Z,101855.41
2022-10-11T19:33:58.065Z,101858.16
2022-10-11T19:36:33.962Z,101858.64
2022-10-11T19:39:05.593Z,101858.30
2022-10-11T19:41:34.050Z,101858.35
2022-10-11T19:44:02.253Z,101863.03
2022-10-11T19:49:21.696Z,101860.71
2022-10-11T19:51:49.988Z,101863.95
2022-10-11T19:54:18.619Z,101862.55
2022-10-11T19:56:47.268Z,101866.73
2022-10-11T19:59:15.805Z,101867.17
2022-10-11T20:01:49.361Z,101865.93
2022-10-11T20:04:51.154Z,101868.38
2022-10-11T20:07:10.273Z,101869.23
2022-10-11T20:09:38.462Z,101865.66
2022-10-11T20:12:07.107Z,101868.74
2022-10-11T20:14:35.215Z,101870.54
2022-10-11T20:17:03.656Z,101866.23
2022-10-11T20:19:32.012Z,101868.13
2022-10-11T20:22:01.152Z,101870.79
2022-10-11T20:24:33.354Z,101870.78
2022-10-11T20:27:06.644Z,101872.11
2022-10-11T20:29:35.660Z,101873.64
2022-10-11T20:32:04.025Z,101871.02
2022-10-11T20:34:32.279Z,101873.95
2022-10-11T20:37:00.543Z,101872.24
2022-10-11T20:39:28.683Z,101873.67
2022-10-11T20:41:57.085Z,101876.54
2022-10-11T20:44:25.347Z,101878.83
2022-10-11T20:46:53.759Z,101879.73
2022-10-11T20:49:22.694Z,101877.16
2022-10-11T20:51:51.060Z,101879.19
2022-10-11T20:54:19.319Z,101876.67
2022-10-11T20:56:47.624Z,101874.48
2022-10-11T20:59:15.920Z,101876.16
2022-10-11T21:01:44.188Z,101876.27
2022-10-11T21:04:18.606Z,101875.19
2022-10-11T21:06:48.137Z,101874.46
2022-10-11T21:09:17.339Z,101873.85
2022-10-11T21:11:46.462Z,101871.21
2022-10-11T21:14:14.980Z,101871.17
2022-10-11T21:16:43.163Z,101871.94
2022-10-11T21:19:14.383Z,101873.20
2022-10-11T21:21:52.509Z,101874.85
2022-10-11T21:24:21.926Z,101876.13
2022-10-11T21:26:50.235Z,101875.59
2022-10-11T21:29:18.543Z,101876.39
2022-10-11T21:31:46.652Z,101876.09
2022-10-11T21:34:14.811Z,101875.68
2022-10-11T21:36:43.723Z,101877.52
2022-10-11T21:39:12.080Z,101877.83
2022-10-11T21:41:42.375Z,101875.19
2022-10-11T21:44:10.587Z,101875.02
2022-10-11T21:49:26.951Z,101872.19
2022-10-11T21:51:55.770Z,101873.81
2022-10-11T21:54:26.111Z,101876.69
2022-10-11T21:56:54.568Z,101875.14
2022-10-11T21:59:22.788Z,101876.09
2022-10-11T22:01:51.191Z,101878.02
2022-10-11T22:04:19.352Z,101878.09
2022-10-11T22:06:47.583Z,101875.64
2022-10-11T22:09:15.800Z,101876.64
2022-10-11T22:11:43.905Z,101873.14
2022-10-11T22:14:12.244Z,101871.70
2022-10-11T22:16:41.097Z,101874.73
2022-10-11T22:19:09.307Z,101869.73
2022-10-11T22:21:40.218Z,101874.39
2022-10-11T22:24:12.428Z,101873.82
2022-10-11T22:26:40.499Z,101874.17
2022-10-11T22:29:08.789Z,101875.48
2022-10-11T22:31:37.045Z,101877.48
2022-10-11T22:34:05.144Z,101879.44
2022-10-11T22:36:33.986Z,101879.75
2022-10-11T22:39:07.881Z,101880.74
2022-10-11T22:41:36.560Z,101878.25
2022-10-11T22:44:04.979Z,101880.08
2022-10-11T22:46:33.346Z,101880.28
2022-10-11T22:49:01.521Z,101880.23
2022-10-11T22:51:29.670Z,101880.66
2022-10-11T22:53:57.873Z,101881.36
2022-10-11T22:56:26.073Z,101880.73
2022-10-11T22:58:54.293Z,101883.57
2022-10-11T23:01:22.365Z,101883.45
2022-10-11T23:03:50.955Z,101883.41
2022-10-11T23:06:19.217Z,101882.90
2022-10-11T23:08:47.404Z,101885.08
2022-10-11T23:11:15.682Z,101884.44
2022-10-11T23:13:43.935Z,101887.18
2022-10-11T23:16:13.395Z,101886.39
2022-10-11T23:18:42.230Z,101889.45
2022-10-11T23:21:10.740Z,101885.31
2022-10-11T23:23:40.113Z,101881.80
2022-10-11T23:26:13.873Z,101880.90
2022-10-11T23:28:43.173Z,101884.27
2022-10-11T23:31:14.363Z,101884.30
2022-10-11T23:33:43.353Z,101884.33
2022-10-11T23:36:24.719Z,101881.33
2022-10-11T23:38:57.546Z,101882.31
2022-10-11T23:41:29.094Z,101884.11
2022-10-11T23:43:58.290Z,101887.30
2022-10-11T23:46:26.456Z,101885.50
2022-10-11T23:48:54.676Z,101884.83
2022-10-11T23:51:22.858Z,101883.63
2022-10-11T23:53:51.124Z,101884.23
2022-10-11T23:56:19.253Z,101882.25
2022-10-11T23:58:47.477Z,101884.16
